Bangkok Bridge — 3FTZ8 — position and weather

sailwx.info

Track history (hours):
 
Tides and Currents Weather Stations Pressure Air Temp Water Temp Dewpoint Dewpoint Depression Visibility Wind Speed Wind Dir Waves Ship Positions

Bangkok Bridge

Last reported at 2017-Feb-14 09:08 UTC. Time now 2017-Feb-19 21:06 UTC.
Position S 26°39' E 153°14'.

Length 267 m; draft 10.9 m.

Type: Ship (hazmat cat A). MMSI: 353368000.

Date/timePositionNaut miles runAvg speedWind from/ knotsBaromVisibWave heightAir tempDewpointWater temp
2017-Feb-14 09:08S 26°39' E 153°14'712.5
2017-Feb-14 08:33S 26°46' E 153°11'1716.7
2017-Feb-14 07:33S 27°03' E 153°16'1414.2
2017-Feb-14 06:33S 27°17' E 153°15'6 1.6
2017-Feb-14 02:31S 27°22' E 153°11'0 0.0
2017-Feb-14 00:21S 27°22' E 153°11'0 0.0
2017-Feb-13 22:13S 27°22' E 153°11'0 0.0
2017-Feb-13 21:31S 27°22' E 153°11'0 0.0
2017-Feb-13 20:28S 27°22' E 153°11'0 0.0
2017-Feb-13 19:30S 27°22' E 153°11'0 0.0
2017-Feb-13 18:24S 27°22' E 153°11'0 0.0
2017-Feb-13 17:33S 27°22' E 153°11'0 0.0
2017-Feb-13 16:33S 27°22' E 153°11'0 0.0
2017-Feb-13 15:03S 27°22' E 153°11'0 0.0
2017-Feb-13 14:31S 27°22' E 153°11'0 0.0
2017-Feb-13 13:31S 27°22' E 153°11'0 0.0
2017-Feb-13 12:30S 27°22' E 153°11'0 0.0
2017-Feb-13 11:30S 27°22' E 153°11'0 0.0
2017-Feb-13 10:33S 27°22' E 153°11'0 0.0
2017-Feb-13 09:33S 27°22' E 153°11'0 0.0
2017-Feb-13 08:30S 27°22' E 153°11'0 0.0
2017-Feb-13 07:33S 27°22' E 153°11'0 0.0
2017-Feb-13 06:33S 27°22' E 153°11'0 0.0
2017-Feb-13 05:33S 27°22' E 153°11'0 0.0
2017-Feb-13 04:33S 27°22' E 153°11'6 6.5
2017-Feb-13 03:34S 27°17' E 153°15'1211.7
2017-Feb-13 02:34S 27°06' E 153°19'1615.7
2017-Feb-13 01:33S 26°52' E 153°10'9 6.6
2017-Feb-13 00:13S 26°45' E 153°16'1212.2
2017-Feb-12 23:12S 26°50' E 153°28'1012.9
2017-Feb-12 22:24S 26°59' E 153°35'1213.5
2017-Feb-12 21:30S 27°10' E 153°41'1413.4
2017-Feb-12 20:27S 27°24' E 153°42'1413.4
2017-Feb-12 19:25S 27°37' E 153°42'1113.1
2017-Feb-12 18:33S 27°49' E 153°42'1312.9
2017-Feb-12 17:34S 28°02' E 153°42'22414.0
2017-Feb-12 01:33S 31°42' E 152°57'1614.9
2017-Feb-12 00:27S 31°57' E 152°50'4615.8
2017-Feb-11 21:33S 32°39' E 152°29'1616.1
2017-Feb-11 20:33S 32°53' E 152°18'1616.0
2017-Feb-11 19:33S 33°06' E 152°08'1615.8
2017-Feb-11 18:33S 33°19' E 151°57'54 3.8
2017-Feb-11 04:31S 33°58' E 151°13'11 0.4
2017-Feb-10 00:04S 34°08' E 151°18'1314.1
2017-Feb-09 23:09S 34°20' E 151°15'813.8
2017-Feb-09 22:33S 34°28' E 151°12'3213.4
2017-Feb-09 20:07S 34°60' E 151°02'915.9
2017-Feb-09 19:33S 35°08' E 150°59'1717.4
2017-Feb-09 18:34S 35°25' E 150°53'  
2017-Feb-06 01:29S 34°06' E 151°37'1817.6
2017-Feb-06 00:28S 33°54' E 151°53'2620.0
2017-Feb-05 23:10S 33°30' E 152°03'1219.1
2017-Feb-05 22:33S 33°18' E 152°06'2019.8
2017-Feb-05 21:33S 33°00' E 152°16'1918.6
2017-Feb-05 20:33S 32°44' E 152°26'1818.2
2017-Feb-05 19:33S 32°27' E 152°36'1918.9
2017-Feb-05 18:33S 32°10' E 152°45'1919.4
2017-Feb-05 17:33S 31°52' E 152°54'15619.2
2017-Feb-05 09:24S 29°20' E 153°33'6018.9
2017-Feb-05 06:15S 28°20' E 153°43'1419.6
2017-Feb-05 05:33S 28°07' E 153°44'2020.3
2017-Feb-05 04:33S 27°47' E 153°44'2821.0
2017-Feb-05 03:13S 27°18' E 153°47'1421.3
2017-Feb-05 02:33S 27°05' E 153°48'  
Track history (hours):
 
Tides and Currents Weather Stations Pressure Air Temp Water Temp Dewpoint Dewpoint Depression Visibility Wind Speed Wind Dir Waves Ship Positions

Bangkok Bridge

Last reported at 2017-Feb-14 09:08 UTC. Time now 2017-Feb-19 21:06 UTC.
Position S 26°39' E 153°14'.

Length 267 m; draft 10.9 m.

Type: Ship (hazmat cat A). MMSI: 353368000.

Date/timePositionNaut miles runAvg speedWind from/ knotsBaromVisibWave heightAir tempDewpointWater temp
2017-Feb-14 09:08S 26°39' E 153°14'712.5
2017-Feb-14 08:33S 26°46' E 153°11'1716.7
2017-Feb-14 07:33S 27°03' E 153°16'1414.2
2017-Feb-14 06:33S 27°17' E 153°15'6 1.6
2017-Feb-14 02:31S 27°22' E 153°11'0 0.0
2017-Feb-14 00:21S 27°22' E 153°11'0 0.0
2017-Feb-13 22:13S 27°22' E 153°11'0 0.0
2017-Feb-13 21:31S 27°22' E 153°11'0 0.0
2017-Feb-13 20:28S 27°22' E 153°11'0 0.0
2017-Feb-13 19:30S 27°22' E 153°11'0 0.0
2017-Feb-13 18:24S 27°22' E 153°11'0 0.0
2017-Feb-13 17:33S 27°22' E 153°11'0 0.0
2017-Feb-13 16:33S 27°22' E 153°11'0 0.0
2017-Feb-13 15:03S 27°22' E 153°11'0 0.0
2017-Feb-13 14:31S 27°22' E 153°11'0 0.0
2017-Feb-13 13:31S 27°22' E 153°11'0 0.0
2017-Feb-13 12:30S 27°22' E 153°11'0 0.0
2017-Feb-13 11:30S 27°22' E 153°11'0 0.0
2017-Feb-13 10:33S 27°22' E 153°11'0 0.0
2017-Feb-13 09:33S 27°22' E 153°11'0 0.0
2017-Feb-13 08:30S 27°22' E 153°11'0 0.0
2017-Feb-13 07:33S 27°22' E 153°11'0 0.0
2017-Feb-13 06:33S 27°22' E 153°11'0 0.0
2017-Feb-13 05:33S 27°22' E 153°11'0 0.0
2017-Feb-13 04:33S 27°22' E 153°11'6 6.5
2017-Feb-13 03:34S 27°17' E 153°15'1211.7
2017-Feb-13 02:34S 27°06' E 153°19'1615.7
2017-Feb-13 01:33S 26°52' E 153°10'9 6.6
2017-Feb-13 00:13S 26°45' E 153°16'1212.2
2017-Feb-12 23:12S 26°50' E 153°28'1012.9
2017-Feb-12 22:24S 26°59' E 153°35'1213.5
2017-Feb-12 21:30S 27°10' E 153°41'1413.4
2017-Feb-12 20:27S 27°24' E 153°42'1413.4
2017-Feb-12 19:25S 27°37' E 153°42'1113.1
2017-Feb-12 18:33S 27°49' E 153°42'1312.9
2017-Feb-12 17:34S 28°02' E 153°42'22414.0
2017-Feb-12 01:33S 31°42' E 152°57'1614.9
2017-Feb-12 00:27S 31°57' E 152°50'4615.8
2017-Feb-11 21:33S 32°39' E 152°29'1616.1
2017-Feb-11 20:33S 32°53' E 152°18'1616.0
2017-Feb-11 19:33S 33°06' E 152°08'1615.8
2017-Feb-11 18:33S 33°19' E 151°57'54 3.8
2017-Feb-11 04:31S 33°58' E 151°13'11 0.4
2017-Feb-10 00:04S 34°08' E 151°18'1314.1
2017-Feb-09 23:09S 34°20' E 151°15'813.8
2017-Feb-09 22:33S 34°28' E 151°12'3213.4
2017-Feb-09 20:07S 34°60' E 151°02'915.9
2017-Feb-09 19:33S 35°08' E 150°59'1717.4
2017-Feb-09 18:34S 35°25' E 150°53'  
2017-Feb-06 01:29S 34°06' E 151°37'1817.6
2017-Feb-06 00:28S 33°54' E 151°53'2620.0
2017-Feb-05 23:10S 33°30' E 152°03'1219.1
2017-Feb-05 22:33S 33°18' E 152°06'2019.8
2017-Feb-05 21:33S 33°00' E 152°16'1918.6
2017-Feb-05 20:33S 32°44' E 152°26'1818.2
2017-Feb-05 19:33S 32°27' E 152°36'1918.9
2017-Feb-05 18:33S 32°10' E 152°45'1919.4
2017-Feb-05 17:33S 31°52' E 152°54'15619.2
2017-Feb-05 09:24S 29°20' E 153°33'6018.9
2017-Feb-05 06:15S 28°20' E 153°43'1419.6
2017-Feb-05 05:33S 28°07' E 153°44'2020.3
2017-Feb-05 04:33S 27°47' E 153°44'2821.0
2017-Feb-05 03:13S 27°18' E 153°47'1421.3
2017-Feb-05 02:33S 27°05' E 153°48'  

Dump ship's entire track history